createdAt,value
2018-04-09T09:55:29.296Z,100142.84
2018-04-09T09:57:56.774Z,100137.12
2018-04-09T10:00:29.945Z,100139.63
2018-04-09T10:02:57.640Z,100135.48
2018-04-09T10:05:33.463Z,100141.00
2018-04-09T10:08:01.018Z,100137.76
2018-04-09T10:10:28.495Z,100139.81
2018-04-09T10:12:55.981Z,100133.30
2018-04-09T10:15:23.442Z,100130.35
2018-04-09T10:17:50.898Z,100121.48
2018-04-09T10:20:18.424Z,100121.14
2018-04-09T10:22:45.879Z,100123.81
2018-04-09T10:25:13.425Z,100121.57
2018-04-09T10:27:40.918Z,100123.25
2018-04-09T10:30:08.482Z,100122.83
2018-04-09T10:32:35.946Z,100115.26
2018-04-09T10:35:03.464Z,100108.03
2018-04-09T10:37:31.590Z,100112.98
2018-04-09T10:39:59.094Z,100121.02
2018-04-09T10:42:26.625Z,100112.67
2018-04-09T10:44:54.091Z,100113.58
2018-04-09T10:47:21.592Z,100116.66
2018-04-09T10:49:49.071Z,100106.16
2018-04-09T10:52:16.633Z,100104.70
2018-04-09T10:54:44.269Z,100102.75
2018-04-09T10:57:11.732Z,100105.87
2018-04-09T10:59:39.257Z,100108.47
2018-04-09T11:02:06.851Z,100110.91
2018-04-09T11:04:34.324Z,100099.73
2018-04-09T11:07:01.823Z,100098.71
2018-04-09T11:09:29.296Z,100087.38
2018-04-09T11:11:56.791Z,100086.04
2018-04-09T11:14:24.289Z,100083.41
2018-04-09T11:16:51.805Z,100089.58
2018-04-09T11:19:19.357Z,100082.23
2018-04-09T11:21:46.858Z,100089.98
2018-04-09T11:24:14.396Z,100089.98
2018-04-09T11:26:42.265Z,100085.33
2018-04-09T11:29:09.738Z,100095.29
2018-04-09T11:31:37.302Z,100082.02
2018-04-09T11:34:04.812Z,100084.11
2018-04-09T11:36:32.290Z,100082.89
2018-04-09T11:38:59.766Z,100077.31
2018-04-09T11:41:27.320Z,100077.44
2018-04-09T11:43:54.802Z,100078.81
2018-04-09T11:46:22.253Z,100075.77
2018-04-09T11:48:49.784Z,100072.71
2018-04-09T11:51:17.225Z,100066.47
2018-04-09T11:53:44.720Z,100069.70
2018-04-09T11:56:12.254Z,100076.19
2018-04-09T11:58:39.734Z,100074.00
2018-04-09T12:01:07.222Z,100071.05
2018-04-09T12:03:34.684Z,100078.98
2018-04-09T12:06:02.237Z,100075.52
2018-04-09T12:08:29.732Z,100076.84
2018-04-09T12:10:57.244Z,100074.34
2018-04-09T12:13:24.799Z,100080.48
2018-04-09T12:15:52.274Z,100080.75
2018-04-09T12:18:19.746Z,100071.03
2018-04-09T12:20:47.237Z,100064.39
2018-04-09T12:23:14.755Z,100063.28
2018-04-09T12:25:42.213Z,100057.09
2018-04-09T12:28:09.700Z,100057.84
2018-04-09T12:30:37.152Z,100061.59
2018-04-09T12:33:04.621Z,100066.48
2018-04-09T12:35:32.099Z,100065.59
2018-04-09T12:37:59.644Z,100064.35
2018-04-09T12:40:27.141Z,100061.01
2018-04-09T12:42:54.624Z,100066.89
2018-04-09T12:45:22.100Z,100060.91
2018-04-09T12:47:49.576Z,100059.83
2018-04-09T12:50:17.066Z,100052.41
2018-04-09T12:52:44.535Z,100053.61
2018-04-09T12:55:12.082Z,100051.47
2018-04-09T12:57:39.576Z,100052.17
2018-04-09T13:00:07.140Z,100049.35
2018-04-09T13:02:34.591Z,100047.56
2018-04-09T13:05:02.073Z,100048.87
2018-04-09T13:07:29.539Z,100046.16
2018-04-09T13:09:56.994Z,100042.19
2018-04-09T13:12:24.524Z,100039.20
2018-04-09T13:14:52.019Z,100041.38
2018-04-09T13:17:19.547Z,100042.12
2018-04-09T13:19:47.207Z,100042.61
2018-04-09T13:22:14.691Z,100040.75
2018-04-09T13:24:42.163Z,100038.94
2018-04-09T13:27:09.619Z,100030.16
2018-04-09T13:29:37.108Z,100031.45
2018-04-09T13:32:04.566Z,100027.66
2018-04-09T13:34:32.035Z,100022.70
2018-04-09T13:36:59.517Z,100014.78
2018-04-09T13:39:26.999Z,100015.08
2018-04-09T13:41:54.472Z,100010.30
2018-04-09T13:44:21.948Z,100008.23
2018-04-09T13:46:49.411Z,100008.77
2018-04-09T13:49:16.895Z,100005.84
2018-04-09T13:51:44.386Z,100009.67
2018-04-09T13:54:11.872Z,100000.72
2018-04-09T13:56:39.370Z,100008.55
2018-04-09T13:59:06.886Z,100003.41
2018-04-09T14:01:34.345Z,99999.16
2018-04-09T14:04:01.848Z,100005.45
2018-04-09T14:06:29.384Z,100002.84
2018-04-09T14:08:57.338Z,99997.35
2018-04-09T14:11:24.832Z,100000.64
2018-04-09T14:13:52.312Z,99991.53
2018-04-09T14:16:19.999Z,99992.59
2018-04-09T14:18:47.446Z,99981.08
2018-04-09T14:21:14.897Z,99982.51
2018-04-09T14:23:42.421Z,99977.23
2018-04-09T14:26:09.980Z,99979.91
2018-04-09T14:28:37.452Z,99982.19
2018-04-09T14:31:04.955Z,99980.69
2018-04-09T14:33:32.410Z,99975.28
2018-04-09T14:35:59.925Z,99974.22
2018-04-09T14:38:27.400Z,99972.40
2018-04-09T14:40:54.872Z,99972.78
2018-04-09T14:43:22.449Z,99970.35
2018-04-09T14:45:49.949Z,99976.31
2018-04-09T14:48:17.456Z,99965.17
2018-04-09T14:50:44.922Z,99970.03
2018-04-09T14:53:12.514Z,99968.57
2018-04-09T14:55:40.023Z,99975.96
2018-04-09T14:58:07.629Z,99970.44
2018-04-09T15:00:35.096Z,99977.52
2018-04-09T15:03:02.551Z,99970.26
2018-04-09T15:05:30.042Z,99973.62
2018-04-09T15:07:57.524Z,99973.25
2018-04-09T15:10:24.984Z,99968.73
2018-04-09T15:12:52.444Z,99965.48
2018-04-09T15:15:19.930Z,99960.01
2018-04-09T15:17:47.406Z,99961.91
2018-04-09T15:20:14.862Z,99962.75
2018-04-09T15:22:42.364Z,99959.01
2018-04-09T15:25:09.827Z,99954.61
2018-04-09T15:27:37.286Z,99952.13
2018-04-09T15:30:04.817Z,99946.99
2018-04-09T15:32:32.275Z,99951.02
2018-04-09T15:34:59.745Z,99943.29
2018-04-09T15:37:27.215Z,99944.98
2018-04-09T15:39:54.723Z,99949.91
2018-04-09T15:42:22.272Z,99950.45
2018-04-09T15:44:49.763Z,99949.95
2018-04-09T15:47:17.297Z,99959.38
2018-04-09T15:49:44.820Z,99950.47
2018-04-09T15:52:12.321Z,99950.09
2018-04-09T15:54:39.837Z,99946.19
2018-04-09T15:57:07.305Z,99946.60
2018-04-09T15:59:34.915Z,99948.37
2018-04-09T16:02:02.420Z,99949.27
2018-04-09T16:04:29.899Z,99946.56
2018-04-09T16:06:57.399Z,99942.86
2018-04-09T16:09:24.925Z,99944.81
2018-04-09T16:11:52.389Z,99946.44
2018-04-09T16:14:19.930Z,99947.25
2018-04-09T16:16:47.431Z,99951.29
2018-04-09T16:19:14.928Z,99945.79
2018-04-09T16:21:42.381Z,99939.52
2018-04-09T16:24:09.859Z,99936.36
2018-04-09T16:26:37.318Z,99936.66
2018-04-09T16:29:04.776Z,99929.79
2018-04-09T16:31:32.253Z,99929.79
2018-04-09T16:33:59.696Z,99931.25
2018-04-09T16:36:27.160Z,99936.91
2018-04-09T16:38:54.651Z,99937.88
2018-04-09T16:41:22.098Z,99947.00
2018-04-09T16:43:49.576Z,99945.80
2018-04-09T16:46:17.075Z,99942.45
2018-04-09T16:48:44.561Z,99940.15
2018-04-09T16:51:12.003Z,99937.53
2018-04-09T16:53:39.495Z,99937.52
2018-04-09T16:56:06.948Z,99936.45
2018-04-09T16:58:34.400Z,99938.61
2018-04-09T17:01:01.872Z,99945.41
2018-04-09T17:03:29.333Z,99936.71
2018-04-09T17:05:56.782Z,99936.08
2018-04-09T17:08:24.281Z,99940.59
2018-04-09T17:10:51.849Z,99946.77
2018-04-09T17:13:19.303Z,99947.78
2018-04-09T17:15:46.764Z,99949.80
2018-04-09T17:18:14.252Z,99943.36
2018-04-09T17:20:41.704Z,99948.92
2018-04-09T17:23:09.167Z,99946.03
2018-04-09T17:25:36.651Z,99948.65
2018-04-09T17:28:04.119Z,99951.39
2018-04-09T17:30:31.593Z,99952.39
2018-04-09T17:32:59.058Z,99946.75
2018-04-09T17:35:26.541Z,99950.59
2018-04-09T17:37:54.041Z,99950.45
2018-04-09T17:40:21.605Z,99963.81
2018-04-09T17:42:49.027Z,99957.46
2018-04-09T17:45:16.558Z,99964.48
2018-04-09T17:47:44.117Z,99966.38
2018-04-09T17:50:11.675Z,99967.47
2018-04-09T17:52:39.167Z,99967.12
2018-04-09T17:55:06.998Z,99972.67
2018-04-09T17:57:34.562Z,99966.67
2018-04-09T18:00:02.074Z,99971.04
2018-04-09T18:02:29.577Z,99968.91
2018-04-09T18:04:57.109Z,99972.13
2018-04-09T18:07:24.592Z,99973.44
2018-04-09T18:09:52.153Z,99967.81
2018-04-09T18:12:19.582Z,99970.96
2018-04-09T18:14:47.068Z,99968.05
2018-04-09T18:17:14.557Z,99969.45
2018-04-09T18:19:42.012Z,99972.24
2018-04-09T18:22:09.470Z,99979.91
2018-04-09T18:24:37.048Z,99971.96
2018-04-09T18:27:04.531Z,99975.61
2018-04-09T18:29:32.136Z,99969.13
2018-04-09T18:31:59.622Z,99967.38
2018-04-09T18:34:27.076Z,99969.72
2018-04-09T18:36:54.532Z,99967.66
2018-04-09T18:39:22.008Z,99967.48
2018-04-09T18:41:49.513Z,99971.97
2018-04-09T18:44:16.967Z,99964.72
2018-04-09T18:46:44.521Z,99966.59
2018-04-09T18:49:12.033Z,99967.65
2018-04-09T18:51:39.540Z,99969.19
2018-04-09T18:54:07.056Z,99968.91
2018-04-09T18:56:34.529Z,99966.48
2018-04-09T18:59:02.016Z,99970.03
2018-04-09T19:01:29.473Z,99978.61
2018-04-09T19:03:56.938Z,99973.61
2018-04-09T19:06:24.497Z,99973.18
2018-04-09T19:08:51.962Z,99970.00
2018-04-09T19:11:19.424Z,99977.48
2018-04-09T19:13:46.912Z,99972.84
2018-04-09T19:16:14.367Z,99973.04
2018-04-09T19:18:41.825Z,99973.21
2018-04-09T19:21:09.340Z,99969.30
2018-04-09T19:23:36.804Z,99975.19
2018-04-09T19:26:04.337Z,99977.81
2018-04-09T19:28:31.824Z,99974.06
2018-04-09T19:30:59.290Z,99973.09
2018-04-09T19:33:26.761Z,99979.31
2018-04-09T19:35:59.958Z,99976.89
2018-04-09T19:38:33.160Z,99981.00
2018-04-09T19:41:00.648Z,99978.87
2018-04-09T19:43:28.115Z,99976.62
2018-04-09T19:45:55.588Z,99977.91
2018-04-09T19:48:23.066Z,99980.03
2018-04-09T19:50:50.567Z,99980.11
2018-04-09T19:53:18.258Z,99977.00
2018-04-09T19:55:45.725Z,99979.66
2018-04-09T19:58:13.245Z,99980.63
2018-04-09T20:00:40.697Z,99975.58
2018-04-09T20:03:08.159Z,99975.78
2018-04-09T20:05:35.627Z,99972.27
2018-04-09T20:08:03.178Z,99969.96
2018-04-09T20:10:30.762Z,99971.17
2018-04-09T20:12:58.227Z,99961.70
2018-04-09T20:15:25.763Z,99962.63
2018-04-09T20:17:53.316Z,99964.29
2018-04-09T20:20:20.763Z,99958.48
2018-04-09T20:22:48.244Z,99958.70
2018-04-09T20:25:15.707Z,99957.64
2018-04-09T20:27:43.208Z,99953.56
2018-04-09T20:30:10.661Z,99958.25
2018-04-09T20:32:38.125Z,99958.44
2018-04-09T20:35:05.753Z,99953.03
2018-04-09T20:37:33.277Z,99950.04
2018-04-09T20:40:00.745Z,99949.55
2018-04-09T20:42:28.234Z,99949.83
2018-04-09T20:44:55.785Z,99943.45
2018-04-09T20:47:23.297Z,99942.00
2018-04-09T20:49:50.784Z,99947.83
2018-04-09T20:52:18.241Z,99947.92
2018-04-09T20:54:45.697Z,99953.06
2018-04-09T20:57:13.181Z,99947.80
2018-04-09T20:59:40.680Z,99950.78
2018-04-09T21:02:08.139Z,99954.36
2018-04-09T21:04:35.623Z,99956.88
2018-04-09T21:07:03.096Z,99955.19
2018-04-09T21:09:30.548Z,99960.36
2018-04-09T21:11:58.068Z,99961.28
2018-04-09T21:14:25.682Z,99955.17
2018-04-09T21:16:53.182Z,99963.42
2018-04-09T21:19:20.636Z,99959.92
2018-04-09T21:21:48.096Z,99958.73
2018-04-09T21:24:15.664Z,99958.64
2018-04-09T21:26:43.135Z,99961.17
2018-04-09T21:29:10.596Z,99969.96
2018-04-09T21:31:38.138Z,99960.05
2018-04-09T21:34:05.642Z,99957.78
2018-04-09T21:36:33.117Z,99959.32
2018-04-09T21:39:00.589Z,99959.36
2018-04-09T21:41:28.087Z,99958.70
2018-04-09T21:43:55.587Z,99963.36
2018-04-09T21:46:23.134Z,99962.95
2018-04-09T21:48:50.599Z,99968.05
2018-04-09T21:51:18.084Z,99963.27
2018-04-09T21:53:45.560Z,99961.38
2018-04-09T21:56:13.028Z,99962.36
2018-04-09T21:58:40.504Z,99961.02
2018-04-09T22:01:07.963Z,99960.39
2018-04-09T22:03:35.424Z,99952.73
2018-04-09T22:06:02.907Z,99954.26
2018-04-09T22:08:30.386Z,99950.98
2018-04-09T22:10:57.844Z,99957.97
2018-04-09T22:13:25.304Z,99949.91
2018-04-09T22:15:52.879Z,99950.62
2018-04-09T22:18:20.350Z,99951.71
2018-04-09T22:20:47.803Z,99947.91
2018-04-09T22:23:15.375Z,99949.00
2018-04-09T22:25:42.847Z,99957.75
2018-04-09T22:28:10.373Z,99952.98
2018-04-09T22:30:37.825Z,99959.42
2018-04-09T22:33:05.285Z,99957.25
2018-04-09T22:35:32.745Z,99963.12
2018-04-09T22:38:00.208Z,99958.08
2018-04-09T22:40:27.697Z,99955.05
2018-04-09T22:42:55.222Z,99961.08
2018-04-09T22:45:22.776Z,99952.36
2018-04-09T22:47:50.252Z,99958.64
2018-04-09T22:50:17.790Z,99961.67
2018-04-09T22:52:45.350Z,99959.06
2018-04-09T22:55:12.852Z,99956.91
2018-04-09T22:57:40.312Z,99951.05
2018-04-09T23:00:07.800Z,99959.62
2018-04-09T23:02:35.256Z,99956.61
2018-04-09T23:05:02.755Z,99963.98
2018-04-09T23:07:30.247Z,99965.06
2018-04-09T23:09:57.713Z,99962.34
2018-04-09T23:12:25.170Z,99959.06
2018-04-09T23:14:52.655Z,99960.03
2018-04-09T23:17:20.171Z,99957.85
2018-04-09T23:19:47.637Z,99959.36
2018-04-09T23:22:15.112Z,99961.28
2018-04-09T23:24:42.568Z,99966.45
2018-04-09T23:27:10.115Z,99967.00
2018-04-09T23:29:37.552Z,99963.58
2018-04-09T23:32:05.185Z,99955.55
2018-04-09T23:34:32.744Z,99959.08
2018-04-09T23:37:00.307Z,99954.33
2018-04-09T23:39:27.873Z,99951.46
2018-04-09T23:41:55.360Z,99951.46
2018-04-09T23:44:22.911Z,99957.17
2018-04-09T23:46:50.431Z,99958.13
2018-04-09T23:49:17.893Z,99957.88
2018-04-09T23:51:45.362Z,99956.36
2018-04-09T23:54:13.052Z,99953.34
2018-04-09T23:56:40.591Z,99959.35
2018-04-09T23:59:08.122Z,99953.09
